createdAt,value
2022-09-07T00:00:17.125Z,26.10
2022-09-07T00:02:43.681Z,26.10
2022-09-07T00:05:10.249Z,26.20
2022-09-07T00:07:36.776Z,26.10
2022-09-07T00:10:03.283Z,26.20
2022-09-07T00:12:29.817Z,26.20
2022-09-07T00:14:56.322Z,26.10
2022-09-07T00:17:22.828Z,26.10
2022-09-07T00:19:50.374Z,26.10
2022-09-07T00:22:16.890Z,26.10
2022-09-07T00:24:43.406Z,26.10
2022-09-07T00:27:09.909Z,26.10
2022-09-07T00:29:36.420Z,26.10
2022-09-07T00:32:02.951Z,26.10
2022-09-07T00:34:29.465Z,26.00
2022-09-07T00:36:55.980Z,26.00
2022-09-07T00:39:22.491Z,26.00
2022-09-07T00:41:49.003Z,26.00
2022-09-07T00:44:16.345Z,26.00
2022-09-07T00:46:42.883Z,26.00
2022-09-07T00:49:09.431Z,26.00
2022-09-07T00:51:35.955Z,25.90
2022-09-07T00:54:02.472Z,25.90
2022-09-07T00:56:28.984Z,25.90
2022-09-07T00:58:55.496Z,25.90
2022-09-07T01:01:22.041Z,25.90
2022-09-07T01:03:48.597Z,25.90
2022-09-07T01:06:15.122Z,25.90
2022-09-07T01:08:41.653Z,25.90
2022-09-07T01:11:08.358Z,25.90
2022-09-07T01:13:34.883Z,25.90
2022-09-07T01:16:01.435Z,25.90
2022-09-07T01:18:33.899Z,25.90
2022-09-07T01:23:40.752Z,25.90
2022-09-07T01:26:07.279Z,25.90
2022-09-07T01:28:33.789Z,25.90
2022-09-07T01:31:00.336Z,25.90
2022-09-07T01:33:26.881Z,25.80
2022-09-07T01:35:53.392Z,25.80
2022-09-07T01:38:19.896Z,25.80
2022-09-07T01:40:46.415Z,25.80
2022-09-07T01:43:15.008Z,25.80
2022-09-07T01:45:41.511Z,25.80
2022-09-07T01:48:08.021Z,25.80
2022-09-07T01:50:34.541Z,25.70
2022-09-07T01:53:01.071Z,25.70
2022-09-07T01:55:27.563Z,25.70
2022-09-07T01:57:54.091Z,25.70
2022-09-07T02:00:22.764Z,25.70
2022-09-07T02:02:49.310Z,25.70
2022-09-07T02:05:15.845Z,25.70
2022-09-07T02:07:42.352Z,25.70
2022-09-07T02:10:08.866Z,25.70
2022-09-07T02:12:35.370Z,25.60
2022-09-07T02:15:01.878Z,25.60
2022-09-07T02:17:28.380Z,25.60
2022-09-07T02:19:54.902Z,25.60
2022-09-07T02:25:01.749Z,25.70
2022-09-07T02:27:28.258Z,25.70
2022-09-07T02:29:54.777Z,25.70
2022-09-07T02:32:21.287Z,25.70
2022-09-07T02:34:47.815Z,25.70
2022-09-07T02:37:14.359Z,25.70
2022-09-07T02:39:43.034Z,25.70
2022-09-07T02:42:09.563Z,25.70
2022-09-07T02:44:36.075Z,25.70
2022-09-07T02:47:02.582Z,25.70
2022-09-07T02:49:29.112Z,25.70
2022-09-07T02:51:55.631Z,25.70
2022-09-07T02:54:22.165Z,25.70
2022-09-07T02:56:48.698Z,25.70
2022-09-07T02:59:15.228Z,25.70
2022-09-07T03:01:41.782Z,25.70
2022-09-07T03:04:08.322Z,25.60
2022-09-07T03:06:34.862Z,25.70
2022-09-07T03:09:01.412Z,25.70
2022-09-07T03:11:27.915Z,25.70
2022-09-07T03:13:54.420Z,25.70
2022-09-07T03:16:21.530Z,25.70
2022-09-07T03:18:48.119Z,25.70
2022-09-07T03:21:14.626Z,25.70
2022-09-07T03:23:41.141Z,25.60
2022-09-07T03:26:07.687Z,25.60
2022-09-07T03:28:34.203Z,25.60
2022-09-07T03:31:00.762Z,25.60
2022-09-07T03:33:27.865Z,25.70
2022-09-07T03:35:54.392Z,25.70
2022-09-07T03:38:20.914Z,25.60
2022-09-07T03:40:47.418Z,25.60
2022-09-07T03:43:13.919Z,25.60
2022-09-07T03:45:40.582Z,25.60
2022-09-07T03:48:07.144Z,25.70
2022-09-07T03:50:33.658Z,25.60
2022-09-07T03:53:03.175Z,25.60
2022-09-07T03:55:29.702Z,25.60
2022-09-07T03:57:56.223Z,25.70
2022-09-07T04:00:22.759Z,25.60
2022-09-07T04:02:49.326Z,25.40
2022-09-07T04:05:15.856Z,25.60
2022-09-07T04:07:42.400Z,25.60
2022-09-07T04:10:08.925Z,25.60
2022-09-07T04:12:35.438Z,25.70
2022-09-07T04:15:01.972Z,25.60
2022-09-07T04:17:28.487Z,25.60
2022-09-07T04:19:55.005Z,25.60
2022-09-07T04:22:21.518Z,25.60
2022-09-07T04:24:48.044Z,25.60
2022-09-07T04:27:14.561Z,25.60
2022-09-07T04:29:41.104Z,25.60
2022-09-07T04:32:15.855Z,25.60
2022-09-07T04:34:44.697Z,25.60
2022-09-07T04:37:11.217Z,25.60
2022-09-07T04:39:37.756Z,25.60
2022-09-07T04:42:04.330Z,25.60
2022-09-07T04:44:30.887Z,25.60
2022-09-07T04:46:57.432Z,25.50
2022-09-07T04:49:23.960Z,25.60
2022-09-07T04:51:52.549Z,25.60
2022-09-07T04:54:19.073Z,25.60
2022-09-07T04:56:45.595Z,25.60
2022-09-07T04:59:12.121Z,25.60
2022-09-07T05:01:38.735Z,25.60
2022-09-07T05:04:05.314Z,25.60
2022-09-07T05:06:31.837Z,25.60
2022-09-07T05:08:58.357Z,25.60
2022-09-07T05:11:28.674Z,25.60
2022-09-07T05:13:55.851Z,25.60
2022-09-07T05:16:22.556Z,25.60
2022-09-07T05:18:49.092Z,25.60
2022-09-07T05:21:15.631Z,25.50
2022-09-07T05:23:42.151Z,25.60
2022-09-07T05:26:08.675Z,25.60
2022-09-07T05:28:35.192Z,25.60
2022-09-07T05:31:17.599Z,25.60
2022-09-07T05:36:31.224Z,25.60
2022-09-07T05:38:57.740Z,25.60
2022-09-07T05:41:24.256Z,25.50
2022-09-07T05:46:37.292Z,25.60
2022-09-07T05:49:03.848Z,25.60
2022-09-07T05:51:32.398Z,25.60
2022-09-07T05:54:01.270Z,25.60
2022-09-07T05:56:27.762Z,25.60
2022-09-07T05:58:54.292Z,25.60
2022-09-07T06:01:20.805Z,25.50
2022-09-07T06:03:47.312Z,25.50
2022-09-07T06:06:13.814Z,25.60
2022-09-07T06:08:40.323Z,25.60
2022-09-07T06:11:06.858Z,25.60
2022-09-07T06:13:33.389Z,25.50
2022-09-07T06:16:01.949Z,25.60
2022-09-07T06:18:28.481Z,25.60
2022-09-07T06:20:55.005Z,25.60
2022-09-07T06:23:21.517Z,25.60
2022-09-07T06:25:48.030Z,25.60
2022-09-07T06:28:14.567Z,25.60
2022-09-07T06:30:41.093Z,25.60
2022-09-07T06:33:07.589Z,25.50
2022-09-07T06:35:36.135Z,25.50
2022-09-07T06:38:02.640Z,25.50
2022-09-07T06:40:29.135Z,25.60
2022-09-07T06:42:55.645Z,25.60
2022-09-07T06:45:22.187Z,25.60
2022-09-07T06:47:48.750Z,25.50
2022-09-07T06:50:15.290Z,25.50
2022-09-07T06:55:28.293Z,25.60
2022-09-07T06:57:57.573Z,25.40
2022-09-07T07:00:24.199Z,25.60
2022-09-07T07:02:50.842Z,25.60
2022-09-07T07:05:17.456Z,25.60
2022-09-07T07:07:43.970Z,25.50
2022-09-07T07:10:10.493Z,25.60
2022-09-07T07:15:02.330Z,25.60
2022-09-07T07:17:28.858Z,25.60
2022-09-07T07:19:55.389Z,25.60
2022-09-07T07:22:45.521Z,25.60
2022-09-07T07:25:08.395Z,25.60
2022-09-07T07:27:34.933Z,25.60
2022-09-07T07:30:08.995Z,25.60
2022-09-07T07:32:35.514Z,25.40
2022-09-07T07:35:01.994Z,25.60
2022-09-07T07:37:28.480Z,25.50
2022-09-07T07:42:41.589Z,25.60
2022-09-07T07:47:54.522Z,25.60
2022-09-07T07:50:36.257Z,25.60
2022-09-07T07:55:49.233Z,25.60
2022-09-07T07:58:15.702Z,25.60
2022-09-07T08:00:57.690Z,25.60
2022-09-07T08:03:24.563Z,25.60
2022-09-07T08:05:51.216Z,25.60
2022-09-07T08:08:17.696Z,25.60
2022-09-07T08:10:44.152Z,25.60
2022-09-07T08:13:13.645Z,25.60
2022-09-07T08:15:40.153Z,25.60
2022-09-07T08:18:06.624Z,25.50
2022-09-07T08:20:33.117Z,25.70
2022-09-07T08:22:59.596Z,25.70
2022-09-07T08:25:26.090Z,25.70
2022-09-07T08:27:52.556Z,25.70
2022-09-07T08:30:19.026Z,25.60
2022-09-07T08:32:45.495Z,25.60
2022-09-07T08:35:19.317Z,25.70
2022-09-07T08:37:45.775Z,25.70
2022-09-07T08:40:12.343Z,25.70
2022-09-07T08:42:38.845Z,25.70
2022-09-07T08:45:05.328Z,25.70
2022-09-07T08:47:31.814Z,25.70
2022-09-07T08:49:58.280Z,25.70
2022-09-07T08:52:24.754Z,25.80
2022-09-07T08:54:51.215Z,25.70
2022-09-07T08:57:21.226Z,25.70
2022-09-07T08:59:47.888Z,25.70
2022-09-07T09:02:32.557Z,25.70
2022-09-07T09:05:17.416Z,25.70
2022-09-07T09:07:44.603Z,25.70
2022-09-07T09:10:11.075Z,25.70
2022-09-07T09:12:38.006Z,25.80
2022-09-07T09:17:44.919Z,25.80
2022-09-07T09:20:11.486Z,25.80
2022-09-07T09:22:37.962Z,25.80
2022-09-07T09:25:04.458Z,25.80
2022-09-07T09:27:30.927Z,25.80
2022-09-07T09:29:57.395Z,25.80
2022-09-07T09:32:29.679Z,25.80
2022-09-07T09:34:56.185Z,25.80
2022-09-07T09:37:24.843Z,25.80
2022-09-07T09:39:54.469Z,25.80
2022-09-07T09:42:23.519Z,25.80
2022-09-07T09:44:50.003Z,25.90
2022-09-07T09:47:31.970Z,25.80
2022-09-07T09:49:58.721Z,25.90
2022-09-07T09:52:30.493Z,25.80
2022-09-07T09:55:23.249Z,25.80
2022-09-07T09:59:04.878Z,25.90
2022-09-07T10:00:31.739Z,25.90
2022-09-07T10:05:47.784Z,25.90
2022-09-07T10:08:14.252Z,25.90
2022-09-07T10:10:40.716Z,25.90
2022-09-07T10:13:07.198Z,25.80
2022-09-07T10:15:37.696Z,25.90
2022-09-07T10:18:06.362Z,25.90
2022-09-07T10:20:33.080Z,25.90
2022-09-07T10:22:59.547Z,25.90
2022-09-07T10:25:26.006Z,25.90
2022-09-07T10:27:59.952Z,25.90
2022-09-07T10:30:27.572Z,25.90
2022-09-07T10:32:54.056Z,25.90
2022-09-07T10:35:20.614Z,26.00
2022-09-07T10:37:47.077Z,26.00
2022-09-07T10:40:13.675Z,25.90
2022-09-07T10:42:40.252Z,26.00
2022-09-07T10:45:06.744Z,26.00
2022-09-07T10:47:33.278Z,25.90
2022-09-07T10:52:46.502Z,26.00
2022-09-07T10:55:20.367Z,26.00
2022-09-07T10:57:49.075Z,26.00
2022-09-07T11:00:15.875Z,26.00
2022-09-07T11:02:42.549Z,26.00
2022-09-07T11:05:09.482Z,26.00
2022-09-07T11:07:35.942Z,26.00
2022-09-07T11:10:02.429Z,26.00
2022-09-07T11:12:28.921Z,26.00
2022-09-07T11:14:55.390Z,26.00
2022-09-07T11:17:21.889Z,26.00
2022-09-07T11:19:48.363Z,26.00
2022-09-07T11:22:14.853Z,26.00
2022-09-07T11:24:41.359Z,26.00
2022-09-07T11:27:07.802Z,26.00
2022-09-07T11:29:34.275Z,26.00
2022-09-07T11:32:01.257Z,26.00
2022-09-07T11:34:27.702Z,26.00
2022-09-07T11:36:54.157Z,26.00
2022-09-07T11:39:20.659Z,26.00
2022-09-07T11:41:47.135Z,26.00
2022-09-07T11:44:13.623Z,26.00
2022-09-07T11:46:40.146Z,26.00
2022-09-07T11:49:09.128Z,26.00
2022-09-07T11:51:35.634Z,26.00
2022-09-07T11:54:02.139Z,26.00
2022-09-07T11:56:28.605Z,26.00
2022-09-07T11:58:55.089Z,26.00
2022-09-07T12:01:21.583Z,26.10
2022-09-07T12:03:48.227Z,26.00
2022-09-07T12:06:14.795Z,26.10
2022-09-07T12:08:48.414Z,26.10
2022-09-07T12:11:14.884Z,26.10
2022-09-07T12:13:41.389Z,26.10
2022-09-07T12:16:07.942Z,26.10
2022-09-07T12:18:34.439Z,26.10
2022-09-07T12:21:00.911Z,26.10
2022-09-07T12:23:27.435Z,26.10
2022-09-07T12:25:53.901Z,26.10
2022-09-07T12:28:22.691Z,26.10
2022-09-07T12:30:49.256Z,26.10
2022-09-07T12:33:15.805Z,26.10
2022-09-07T12:35:42.318Z,26.10
2022-09-07T12:38:08.816Z,26.10
2022-09-07T12:40:35.286Z,26.10
2022-09-07T12:43:09.517Z,26.10
2022-09-07T12:45:36.461Z,26.10
2022-09-07T12:48:04.510Z,26.10
2022-09-07T12:50:31.277Z,26.10
2022-09-07T12:52:57.764Z,26.10
2022-09-07T12:55:28.295Z,26.10
2022-09-07T12:57:55.522Z,26.10
2022-09-07T13:00:22.005Z,26.10
2022-09-07T13:02:48.978Z,26.10
2022-09-07T13:05:15.692Z,26.10
2022-09-07T13:07:42.202Z,26.10
2022-09-07T13:10:08.689Z,26.10
2022-09-07T13:15:24.118Z,26.10
2022-09-07T13:17:50.822Z,26.10
2022-09-07T13:20:17.311Z,26.10
2022-09-07T13:22:43.783Z,26.10
2022-09-07T13:25:10.273Z,26.10
2022-09-07T13:27:36.783Z,26.10
2022-09-07T13:30:03.266Z,26.20
2022-09-07T13:35:16.209Z,26.10
2022-09-07T13:37:42.700Z,26.20
2022-09-07T13:40:09.269Z,26.00
2022-09-07T13:42:35.799Z,26.20
2022-09-07T13:45:02.307Z,26.20
2022-09-07T13:47:28.781Z,26.20
2022-09-07T13:49:56.189Z,26.20
2022-09-07T13:52:22.796Z,26.20
2022-09-07T13:54:49.256Z,26.20
2022-09-07T13:57:16.837Z,26.20
2022-09-07T13:59:45.623Z,26.20
2022-09-07T14:02:12.144Z,26.20
2022-09-07T14:04:38.639Z,26.20
2022-09-07T14:07:05.143Z,26.20
2022-09-07T14:09:31.606Z,26.20
2022-09-07T14:11:58.092Z,26.20
2022-09-07T14:14:24.570Z,26.20
2022-09-07T14:16:54.242Z,26.20
2022-09-07T14:19:20.769Z,26.20
2022-09-07T14:21:47.252Z,26.20
2022-09-07T14:24:21.164Z,26.30
2022-09-07T14:26:47.640Z,26.30
2022-09-07T14:29:14.104Z,26.30
2022-09-07T14:31:40.574Z,26.30
2022-09-07T14:34:07.091Z,26.30
2022-09-07T14:36:45.491Z,26.30
2022-09-07T14:39:12.649Z,26.30
2022-09-07T14:41:41.181Z,26.30
2022-09-07T14:44:07.659Z,26.30
2022-09-07T14:46:34.215Z,26.30
2022-09-07T14:49:00.727Z,26.30
2022-09-07T14:51:35.012Z,26.30
2022-09-07T14:54:02.396Z,26.30
2022-09-07T14:56:28.863Z,26.30
2022-09-07T14:58:55.346Z,26.30
2022-09-07T15:01:44.403Z,26.30
2022-09-07T15:04:10.971Z,26.30
2022-09-07T15:09:23.958Z,26.30
2022-09-07T15:11:50.414Z,26.30
2022-09-07T15:14:16.894Z,26.30
2022-09-07T15:16:43.841Z,26.30
2022-09-07T15:21:50.731Z,26.40
2022-09-07T15:24:17.380Z,26.30
2022-09-07T15:29:30.961Z,26.30
2022-09-07T15:32:03.913Z,26.30
2022-09-07T15:34:31.492Z,26.30
2022-09-07T15:36:58.448Z,26.30
2022-09-07T15:39:25.935Z,26.40
2022-09-07T15:42:00.641Z,26.30
2022-09-07T15:44:44.776Z,26.30
2022-09-07T15:49:57.695Z,26.30
2022-09-07T15:52:24.167Z,26.30
2022-09-07T15:54:50.660Z,26.30
2022-09-07T16:00:03.578Z,26.30
2022-09-07T16:05:16.582Z,26.30
2022-09-07T16:10:31.132Z,26.40
2022-09-07T16:13:02.263Z,26.40
2022-09-07T16:15:30.281Z,26.40
2022-09-07T16:17:58.874Z,26.40
2022-09-07T16:20:25.416Z,26.40
2022-09-07T16:25:41.479Z,26.40
2022-09-07T16:28:07.954Z,26.40
2022-09-07T16:30:34.427Z,26.40
2022-09-07T16:33:00.948Z,26.40
2022-09-07T16:35:27.470Z,26.40
2022-09-07T16:40:41.450Z,26.40
2022-09-07T16:43:08.000Z,26.40
2022-09-07T16:48:20.944Z,26.40
2022-09-07T16:50:47.397Z,26.40
2022-09-07T16:53:14.006Z,26.40
2022-09-07T16:55:41.488Z,26.40
2022-09-07T17:01:03.052Z,26.40
2022-09-07T17:03:29.625Z,26.40
2022-09-07T17:05:56.158Z,26.40
2022-09-07T17:08:22.627Z,26.40
2022-09-07T17:10:49.093Z,26.40
2022-09-07T17:13:15.568Z,26.40
2022-09-07T17:15:42.058Z,26.40
2022-09-07T17:18:10.594Z,26.40
2022-09-07T17:20:37.059Z,26.40
2022-09-07T17:23:03.572Z,26.40
2022-09-07T17:25:30.048Z,26.40
2022-09-07T17:27:56.524Z,26.40
2022-09-07T17:30:24.740Z,26.40
2022-09-07T17:32:51.478Z,26.40
2022-09-07T17:35:17.998Z,26.40
2022-09-07T17:37:47.488Z,26.20
2022-09-07T17:40:14.028Z,26.40
2022-09-07T17:45:28.031Z,26.40
2022-09-07T17:47:54.604Z,26.40
2022-09-07T17:50:21.093Z,26.40
2022-09-07T17:52:52.990Z,26.40
2022-09-07T17:55:19.614Z,26.30
2022-09-07T17:57:46.114Z,26.30
2022-09-07T18:00:12.871Z,26.30
2022-09-07T18:02:39.465Z,26.30
2022-09-07T18:05:07.099Z,26.30
2022-09-07T18:07:33.832Z,26.30
2022-09-07T18:10:00.309Z,26.30
2022-09-07T18:12:26.777Z,26.30
2022-09-07T18:14:53.248Z,26.20
2022-09-07T18:17:22.026Z,26.30
2022-09-07T18:19:48.513Z,26.20
2022-09-07T18:22:17.071Z,26.20
2022-09-07T18:24:43.554Z,26.20
2022-09-07T18:27:17.377Z,26.10
2022-09-07T18:29:43.845Z,26.20
2022-09-07T18:32:10.369Z,26.20
2022-09-07T18:34:36.878Z,26.20
2022-09-07T18:37:03.371Z,26.20
2022-09-07T18:39:30.120Z,26.20
2022-09-07T18:41:56.649Z,26.20
2022-09-07T18:47:16.145Z,26.10
2022-09-07T18:49:47.521Z,26.10
2022-09-07T18:55:00.529Z,26.10
2022-09-07T18:57:26.986Z,26.10
2022-09-07T18:59:53.598Z,26.10
2022-09-07T19:02:20.275Z,26.10
2022-09-07T19:07:33.386Z,26.10
2022-09-07T19:09:59.892Z,26.10
2022-09-07T19:12:26.387Z,26.10
2022-09-07T19:14:52.884Z,26.00
2022-09-07T19:17:19.408Z,26.10
2022-09-07T19:19:45.878Z,26.10
2022-09-07T19:22:13.063Z,26.10
2022-09-07T19:24:41.591Z,26.10
2022-09-07T19:27:08.092Z,26.00
2022-09-07T19:29:34.577Z,26.00
2022-09-07T19:32:01.131Z,26.00
2022-09-07T19:34:27.641Z,26.00
2022-09-07T19:36:54.103Z,26.00
2022-09-07T19:39:20.565Z,26.00
2022-09-07T19:41:48.078Z,26.00
2022-09-07T19:44:14.528Z,26.00
2022-09-07T19:46:41.030Z,26.00
2022-09-07T19:49:07.562Z,26.00
2022-09-07T19:51:36.792Z,26.00
2022-09-07T19:54:03.408Z,26.00
2022-09-07T19:56:29.880Z,26.00
2022-09-07T19:58:56.289Z,26.00
2022-09-07T20:01:22.819Z,26.00
2022-09-07T20:03:49.412Z,26.00
2022-09-07T20:06:15.906Z,26.00
2022-09-07T20:08:42.438Z,26.00
2022-09-07T20:11:08.903Z,25.90
2022-09-07T20:13:35.372Z,26.00
2022-09-07T20:16:01.943Z,25.90
2022-09-07T20:18:35.728Z,26.00
2022-09-07T20:21:02.187Z,25.90
2022-09-07T20:23:28.755Z,26.00
2022-09-07T20:25:55.280Z,25.90
2022-09-07T20:28:21.823Z,25.70
2022-09-07T20:30:48.299Z,25.90
2022-09-07T20:33:14.762Z,25.90
2022-09-07T20:35:41.235Z,25.90
2022-09-07T20:38:10.813Z,25.90
2022-09-07T20:40:37.294Z,25.90
2022-09-07T20:43:03.764Z,25.90
2022-09-07T20:45:31.907Z,25.90
2022-09-07T20:47:58.534Z,25.90
2022-09-07T20:50:25.036Z,25.80
2022-09-07T20:52:51.506Z,25.90
2022-09-07T20:55:17.978Z,25.90
2022-09-07T20:57:45.166Z,25.90
2022-09-07T21:00:11.652Z,25.80
2022-09-07T21:02:40.461Z,25.80
2022-09-07T21:05:06.954Z,25.80
2022-09-07T21:07:33.413Z,25.80
2022-09-07T21:10:02.318Z,25.80
2022-09-07T21:12:32.491Z,25.80
2022-09-07T21:14:58.960Z,25.80
2022-09-07T21:17:25.454Z,25.70
2022-09-07T21:19:51.918Z,25.80
2022-09-07T21:22:19.155Z,25.80
2022-09-07T21:24:45.615Z,25.70
2022-09-07T21:27:12.082Z,25.70
2022-09-07T21:29:38.551Z,25.70
2022-09-07T21:32:05.019Z,25.70
2022-09-07T21:34:31.493Z,25.70
2022-09-07T21:36:57.956Z,25.70
2022-09-07T21:39:30.350Z,25.70
2022-09-07T21:41:56.872Z,25.70
2022-09-07T21:44:23.357Z,25.70
2022-09-07T21:46:49.878Z,25.70
2022-09-07T21:49:16.359Z,25.50
2022-09-07T21:51:42.832Z,25.70
2022-09-07T21:54:09.347Z,25.70
2022-09-07T21:56:35.798Z,25.70
2022-09-07T21:59:02.353Z,25.70
2022-09-07T22:01:28.935Z,25.70
2022-09-07T22:03:55.481Z,25.70
2022-09-07T22:06:22.125Z,25.70
2022-09-07T22:08:48.596Z,25.70
2022-09-07T22:11:15.100Z,25.70
2022-09-07T22:13:41.569Z,25.70
2022-09-07T22:16:08.100Z,25.70
2022-09-07T22:18:34.595Z,25.50
2022-09-07T22:21:01.087Z,25.70
2022-09-07T22:23:27.582Z,25.70
2022-09-07T22:25:54.062Z,25.70
2022-09-07T22:28:20.559Z,25.70
2022-09-07T22:30:47.032Z,25.70
2022-09-07T22:33:13.499Z,25.70
2022-09-07T22:35:41.219Z,25.70
2022-09-07T22:38:10.808Z,25.70
2022-09-07T22:40:37.286Z,25.80
2022-09-07T22:43:03.755Z,25.60
2022-09-07T22:45:30.248Z,25.60
2022-09-07T22:47:56.711Z,25.60
2022-09-07T22:50:23.195Z,25.70
2022-09-07T22:52:49.674Z,25.60
2022-09-07T22:55:17.217Z,25.60
2022-09-07T22:57:43.747Z,25.60
2022-09-07T23:00:10.211Z,25.70
2022-09-07T23:02:36.694Z,25.70
2022-09-07T23:05:03.284Z,25.70
2022-09-07T23:07:29.858Z,25.70
2022-09-07T23:09:56.323Z,25.70
2022-09-07T23:12:22.806Z,25.70
2022-09-07T23:14:49.298Z,25.70
2022-09-07T23:17:18.784Z,25.70
2022-09-07T23:19:45.280Z,25.60
2022-09-07T23:22:14.766Z,25.60
2022-09-07T23:24:41.236Z,25.70
2022-09-07T23:27:07.702Z,25.70
2022-09-07T23:29:34.159Z,25.70
2022-09-07T23:32:00.642Z,25.70
2022-09-07T23:34:27.124Z,25.70
2022-09-07T23:36:53.594Z,25.60
2022-09-07T23:39:20.059Z,25.40
2022-09-07T23:41:48.575Z,25.70
2022-09-07T23:44:20.204Z,25.60
2022-09-07T23:46:47.298Z,25.70
2022-09-07T23:49:13.821Z,25.70
2022-09-07T23:51:40.289Z,25.70
2022-09-07T23:54:06.748Z,25.60
2022-09-07T23:56:33.291Z,25.70
2022-09-07T23:58:59.770Z,25.60
